Terminal Aerodrome Forecast
Issued by NWS Paducah, KY

Home | Current Version | Previous Version | Text Only | Print | Product List | Glossary On
Versions: 1 2 3 4 5 6 7 8 9 10 11 12 13 14 15 16 17 18
434
FTUS43 KPAH 130536
TAFEVV
TAF
KEVV 130536Z 1306/1406 32010G17KT P6SM FEW040
     FM131500 34007KT P6SM SCT200
     FM140000 05004KT P6SM BKN100=

USA.gov is the U.S. government's official web portal to all federal, state and local government web resources and services.